Terminal Aerodrome Forecast
Issued by NWS

Home | Current Version | Previous Version | Text Only | Print | Product List | Glossary On
Versions: 1 2 3 4 5 6 7 8 9 10 11 12 13 14 15 16 17 18
000
FTUS45 KVEF 311720
TAFBIH
TAF
KBIH 311720Z 3118/0118 VRB06KT P6SM SKC
     FM312000 16013G20KT 6SM FU FEW250
     FM010300 16009KT 6SM FU SCT050 SCT250
     FM010900 32005KT P6SM FEW250
     FM011500 VRB05KT P6SM FEW250=

USA.gov is the U.S. government's official web portal to all federal, state and local government web resources and services.